sensor_id;sensor_type;location;lat;lon;timestamp;pressure;altitude;pressure_sealevel;temperature;humidity
69751;BME280;57335;52.288;6.056;2024-02-15T00:00:54;101604.78;;;11.87;100.00
69751;BME280;57335;52.288;6.056;2024-02-15T00:03:20;101600.72;;;11.84;100.00
69751;BME280;57335;52.288;6.056;2024-02-15T00:05:48;101606.81;;;11.85;100.00
69751;BME280;57335;52.288;6.056;2024-02-15T00:08:15;101596.69;;;11.82;100.00
69751;BME280;57335;52.288;6.056;2024-02-15T00:10:42;101597.28;;;11.84;100.00
69751;BME280;57335;52.288;6.056;2024-02-15T00:13:08;101601.13;;;11.81;100.00
69751;BME280;57335;52.288;6.056;2024-02-15T00:15:35;101597.66;;;11.81;100.00
69751;BME280;57335;52.288;6.056;2024-02-15T00:18:03;101604.56;;;11.82;100.00
69751;BME280;57335;52.288;6.056;2024-02-15T00:20:31;101595.88;;;11.81;100.00
69751;BME280;57335;52.288;6.056;2024-02-15T00:23:00;101601.13;;;11.81;100.00
69751;BME280;57335;52.288;6.056;2024-02-15T00:25:27;101607.59;;;11.85;100.00
69751;BME280;57335;52.288;6.056;2024-02-15T00:27:53;101603.56;;;11.83;100.00
69751;BME280;57335;52.288;6.056;2024-02-15T00:30:20;101609.44;;;11.85;100.00
69751;BME280;57335;52.288;6.056;2024-02-15T00:32:48;101605.97;;;11.84;100.00
69751;BME280;57335;52.288;6.056;2024-02-15T00:35:15;101594.66;;;11.84;100.00
69751;BME280;57335;52.288;6.056;2024-02-15T00:37:43;101587.81;;;11.83;100.00
69751;BME280;57335;52.288;6.056;2024-02-15T00:40:11;101597.09;;;11.85;100.00
69751;BME280;57335;52.288;6.056;2024-02-15T00:42:37;101597.91;;;11.86;100.00
69751;BME280;57335;52.288;6.056;2024-02-15T00:45:04;101591.03;;;11.85;100.00
69751;BME280;57335;52.288;6.056;2024-02-15T00:47:31;101597.91;;;11.86;100.00
69751;BME280;57335;52.288;6.056;2024-02-15T00:49:59;101598.31;;;11.83;100.00
69751;BME280;57335;52.288;6.056;2024-02-15T00:52:26;101596.31;;;11.85;100.00
69751;BME280;57335;52.288;6.056;2024-02-15T00:54:53;101609.22;;;11.86;100.00
69751;BME280;57335;52.288;6.056;2024-02-15T00:57:19;101603.97;;;11.86;100.00
69751;BME280;57335;52.288;6.056;2024-02-15T00:59:46;101596.31;;;11.85;100.00
69751;BME280;57335;52.288;6.056;2024-02-15T01:02:12;101600.34;;;11.87;100.00
69751;BME280;57335;52.288;6.056;2024-02-15T01:04:39;101598.91;;;11.85;100.00
69751;BME280;57335;52.288;6.056;2024-02-15T01:07:06;101593.66;;;11.85;100.00
69751;BME280;57335;52.288;6.056;2024-02-15T01:09:33;101599.53;;;11.87;100.00
69751;BME280;57335;52.288;6.056;2024-02-15T01:11:59;101589.22;;;11.85;100.00
69751;BME280;57335;52.288;6.056;2024-02-15T01:14:26;101590.03;;;11.86;100.00
69751;BME280;57335;52.288;6.056;2024-02-15T01:16:57;101593.84;;;11.83;100.00
69751;BME280;57335;52.288;6.056;2024-02-15T01:19:24;101605.16;;;11.84;100.00
69751;BME280;57335;52.288;6.056;2024-02-15T01:21:51;101596.31;;;11.85;100.00
69751;BME280;57335;52.288;6.056;2024-02-15T01:24:17;101589.22;;;11.85;100.00
69751;BME280;57335;52.288;6.056;2024-02-15T01:26:44;101597.91;;;11.86;100.00
69751;BME280;57335;52.288;6.056;2024-02-15T01:29:10;101587.41;;;11.86;100.00
69751;BME280;57335;52.288;6.056;2024-02-15T01:31:38;101591.03;;;11.85;100.00
69751;BME280;57335;52.288;6.056;2024-02-15T01:34:05;101601.56;;;11.85;100.00
69751;BME280;57335;52.288;6.056;2024-02-15T01:36:32;101591.84;;;11.85;100.00
69751;BME280;57335;52.288;6.056;2024-02-15T01:38:58;101593.66;;;11.85;100.00
69751;BME280;57335;52.288;6.056;2024-02-15T01:41:25;101586.16;;;11.82;100.00
69751;BME280;57335;52.288;6.056;2024-02-15T01:43:52;101582.75;;;11.81;100.00
69751;BME280;57335;52.288;6.056;2024-02-15T01:46:20;101589.41;;;11.84;100.00
69751;BME280;57335;52.288;6.056;2024-02-15T01:48:47;101586.16;;;11.82;100.00
69751;BME280;57335;52.288;6.056;2024-02-15T01:51:15;101584.16;;;11.84;100.00
69751;BME280;57335;52.288;6.056;2024-02-15T01:53:43;101584.16;;;11.84;100.00
69751;BME280;57335;52.288;6.056;2024-02-15T01:56:12;101584.97;;;11.84;100.00
69751;BME280;57335;52.288;6.056;2024-02-15T01:58:40;101582.16;;;11.86;100.00
69751;BME280;57335;52.288;6.056;2024-02-15T02:01:07;101584.59;;;11.87;100.00
69751;BME280;57335;52.288;6.056;2024-02-15T02:03:34;101584.19;;;11.90;100.00
69751;BME280;57335;52.288;6.056;2024-02-15T02:06:01;101589.47;;;11.90;100.00
69751;BME280;57335;52.288;6.056;2024-02-15T02:08:29;101578.16;;;11.90;100.00
69751;BME280;57335;52.288;6.056;2024-02-15T02:10:56;101587.44;;;11.92;100.00
69751;BME280;57335;52.288;6.056;2024-02-15T02:13:23;101578.31;;;11.88;100.00
69751;BME280;57335;52.288;6.056;2024-02-15T02:15:50;101581.38;;;11.92;100.00
69751;BME280;57335;52.288;6.056;2024-02-15T02:18:17;101570.50;;;11.95;100.00
69751;BME280;57335;52.288;6.056;2024-02-15T02:20:44;101569.66;;;11.94;100.00
69751;BME280;57335;52.288;6.056;2024-02-15T02:23:16;101580.59;;;11.98;100.00
69751;BME280;57335;52.288;6.056;2024-02-15T02:25:45;101569.28;;;11.97;100.00
69751;BME280;57335;52.288;6.056;2024-02-15T02:28:16;101564.47;;;12.01;100.00
69751;BME280;57335;52.288;6.056;2024-02-15T02:30:43;101569.72;;;12.01;100.00
69751;BME280;57335;52.288;6.056;2024-02-15T02:33:12;101562.22;;;11.98;100.00
69751;BME280;57335;52.288;6.056;2024-02-15T02:35:46;101569.72;;;12.01;100.00
69751;BME280;57335;52.288;6.056;2024-02-15T02:38:17;101565.25;;;12.02;100.00
69751;BME280;57335;52.288;6.056;2024-02-15T02:40:43;101555.13;;;11.98;100.00
69751;BME280;57335;52.288;6.056;2024-02-15T02:43:10;101556.75;;;12.00;100.00
69751;BME280;57335;52.288;6.056;2024-02-15T02:45:37;101560.44;;;12.05;100.00
69751;BME280;57335;52.288;6.056;2024-02-15T02:48:04;101553.94;;;12.01;100.00
69751;BME280;57335;52.288;6.056;2024-02-15T02:50:31;101558.19;;;12.02;100.00
69751;BME280;57335;52.288;6.056;2024-02-15T02:52:58;101556.56;;;12.01;100.00
69751;BME280;57335;52.288;6.056;2024-02-15T02:55:26;101558.97;;;12.03;100.00
69751;BME280;57335;52.288;6.056;2024-02-15T02:57:54;101558.00;;;12.04;100.00
69751;BME280;57335;52.288;6.056;2024-02-15T03:00:21;101555.78;;;12.07;100.00
69751;BME280;57335;52.288;6.056;2024-02-15T03:02:49;101555.59;;;12.09;100.00
69751;BME280;57335;52.288;6.056;2024-02-15T03:05:16;101552.34;;;12.07;100.00
69751;BME280;57335;52.288;6.056;2024-02-15T03:07:43;101548.69;;;12.08;100.00
69751;BME280;57335;52.288;6.056;2024-02-15T03:10:11;101549.50;;;12.08;100.00
69751;BME280;57335;52.288;6.056;2024-02-15T03:12:41;101552.75;;;12.10;100.00
69751;BME280;57335;52.288;6.056;2024-02-15T03:15:14;101545.88;;;12.09;100.00
69751;BME280;57335;52.288;6.056;2024-02-15T03:17:42;101545.88;;;12.09;100.00
69751;BME280;57335;52.288;6.056;2024-02-15T03:20:11;101549.94;;;12.12;100.00
69751;BME280;57335;52.288;6.056;2024-02-15T03:22:39;101546.50;;;12.11;100.00
69751;BME280;57335;52.288;6.056;2024-02-15T03:25:06;101542.84;;;12.12;100.00
69751;BME280;57335;52.288;6.056;2024-02-15T03:27:36;101543.88;;;12.11;100.00
69751;BME280;57335;52.288;6.056;2024-02-15T03:30:04;101549.94;;;12.12;100.00
69751;BME280;57335;52.288;6.056;2024-02-15T03:32:31;101546.69;;;12.10;100.00
69751;BME280;57335;52.288;6.056;2024-02-15T03:34:58;101552.13;;;12.08;100.00
69751;BME280;57335;52.288;6.056;2024-02-15T03:37:26;101547.09;;;12.07;100.00
69751;BME280;57335;52.288;6.056;2024-02-15T03:39:53;101551.13;;;12.09;100.00
69751;BME280;57335;52.288;6.056;2024-02-15T03:42:20;101552.13;;;12.08;100.00
69751;BME280;57335;52.288;6.056;2024-02-15T03:44:47;101553.75;;;12.09;100.00
69751;BME280;57335;52.288;6.056;2024-02-15T03:47:14;101553.56;;;12.11;100.00
69751;BME280;57335;52.288;6.056;2024-02-15T03:49:41;101561.84;;;12.08;100.00
69751;BME280;57335;52.288;6.056;2024-02-15T03:52:08;101558.41;;;12.07;100.00
69751;BME280;57335;52.288;6.056;2024-02-15T03:54:37;101551.53;;;12.06;100.00
69751;BME280;57335;52.288;6.056;2024-02-15T03:57:04;101557.19;;;12.10;100.00
69751;BME280;57335;52.288;6.056;2024-02-15T03:59:33;101556.41;;;12.09;100.00
69751;BME280;57335;52.288;6.056;2024-02-15T04:02:01;101557.19;;;12.10;100.00
69751;BME280;57335;52.288;6.056;2024-02-15T04:04:29;101546.69;;;12.10;100.00
69751;BME280;57335;52.288;6.056;2024-02-15T04:06:57;101553.56;;;12.11;100.00
69751;BME280;57335;52.288;6.056;2024-02-15T04:09:25;101545.09;;;12.09;100.00
69751;BME280;57335;52.288;6.056;2024-02-15T04:11:51;101540.81;;;12.08;100.00
69751;BME280;57335;52.288;6.056;2024-02-15T04:14:20;101547.72;;;12.09;100.00
69751;BME280;57335;52.288;6.056;2024-02-15T04:16:47;101548.50;;;12.09;100.00
69751;BME280;57335;52.288;6.056;2024-02-15T04:19:14;101536.38;;;12.08;100.00
69751;BME280;57335;52.288;6.056;2024-02-15T04:21:40;101527.25;;;12.04;100.00
69751;BME280;57335;52.288;6.056;2024-02-15T04:24:10;101528.09;;;12.05;100.00
69751;BME280;57335;52.288;6.056;2024-02-15T04:26:37;101528.69;;;12.00;100.00
69751;BME280;57335;52.288;6.056;2024-02-15T04:29:04;101516.75;;;11.91;100.00
69751;BME280;57335;52.288;6.056;2024-02-15T04:31:34;101537.78;;;11.97;100.00
69751;BME280;57335;52.288;6.056;2024-02-15T04:34:05;101528.06;;;11.91;100.00
69751;BME280;57335;52.288;6.056;2024-02-15T04:36:32;101538.56;;;11.91;100.00
69751;BME280;57335;52.288;6.056;2024-02-15T04:39:00;101538.56;;;11.91;100.00
69751;BME280;57335;52.288;6.056;2024-02-15T04:41:31;101537.31;;;11.87;100.00
69751;BME280;57335;52.288;6.056;2024-02-15T04:43:57;101529.25;;;11.89;100.00
69751;BME280;57335;52.288;6.056;2024-02-15T04:46:24;101528.81;;;11.85;100.00
69751;BME280;57335;52.288;6.056;2024-02-15T04:48:51;101516.66;;;11.84;100.00
69751;BME280;57335;52.288;6.056;2024-02-15T04:51:18;101521.94;;;11.84;100.00
69751;BME280;57335;52.288;6.056;2024-02-15T04:53:46;101513.84;;;11.79;100.00
69751;BME280;57335;52.288;6.056;2024-02-15T04:56:14;101518.25;;;11.78;100.00
69751;BME280;57335;52.288;6.056;2024-02-15T04:58:43;101518.25;;;11.72;100.00
69751;BME280;57335;52.288;6.056;2024-02-15T05:01:15;101526.94;;;11.72;100.00
69751;BME280;57335;52.288;6.056;2024-02-15T05:03:45;101521.50;;;11.74;100.00
69751;BME280;57335;52.288;6.056;2024-02-15T05:06:12;101526.94;;;11.72;100.00
69751;BME280;57335;52.288;6.056;2024-02-15T05:08:39;101516.84;;;11.69;100.00
69751;BME280;57335;52.288;6.056;2024-02-15T05:11:11;101508.94;;;11.63;100.00
69751;BME280;57335;52.288;6.056;2024-02-15T05:13:44;101517.81;;;11.62;100.00
69751;BME280;57335;52.288;6.056;2024-02-15T05:16:12;101502.88;;;11.62;100.00
69751;BME280;57335;52.288;6.056;2024-02-15T05:18:38;101500.66;;;11.59;100.00
69751;BME280;57335;52.288;6.056;2024-02-15T05:21:08;101505.50;;;11.62;100.00
69751;BME280;57335;52.288;6.056;2024-02-15T05:23:36;101487.53;;;11.59;100.00
69751;BME280;57335;52.288;6.056;2024-02-15T05:26:06;101491.13;;;11.58;100.00
69751;BME280;57335;52.288;6.056;2024-02-15T05:28:32;101496.00;;;11.61;100.00
69751;BME280;57335;52.288;6.056;2024-02-15T05:33:40;101486.31;;;11.62;100.00
69751;BME280;57335;52.288;6.056;2024-02-15T05:36:11;101485.50;;;11.61;100.00
69751;BME280;57335;52.288;6.056;2024-02-15T05:38:39;101483.50;;;11.63;100.00
69751;BME280;57335;52.288;6.056;2024-02-15T05:41:06;101477.81;;;11.60;100.00
69751;BME280;57335;52.288;6.056;2024-02-15T05:43:38;101484.28;;;11.64;100.00
69751;BME280;57335;52.288;6.056;2024-02-15T05:46:05;101500.47;;;11.67;100.00
69751;BME280;57335;52.288;6.056;2024-02-15T05:48:37;101485.53;;;11.68;100.00
69751;BME280;57335;52.288;6.056;2024-02-15T05:51:05;101487.97;;;11.69;100.00
69751;BME280;57335;52.288;6.056;2024-02-15T05:53:36;101481.06;;;11.68;100.00
69751;BME280;57335;52.288;6.056;2024-02-15T05:56:04;101480.69;;;11.71;100.00
69751;BME280;57335;52.288;6.056;2024-02-15T05:58:31;101483.53;;;11.76;100.00
69751;BME280;57335;52.288;6.056;2024-02-15T06:00:59;101486.75;;;11.78;100.00
69751;BME280;57335;52.288;6.056;2024-02-15T06:03:33;101484.53;;;11.82;100.00
69751;BME280;57335;52.288;6.056;2024-02-15T06:06:00;101467.78;;;11.83;100.00
69751;BME280;57335;52.288;6.056;2024-02-15T06:08:29;101464.38;;;11.83;100.00
69751;BME280;57335;52.288;6.056;2024-02-15T06:10:58;101443.13;;;11.77;100.00
69751;BME280;57335;52.288;6.056;2024-02-15T06:13:26;101436.06;;;11.78;100.00
69751;BME280;57335;52.288;6.056;2024-02-15T06:15:53;101436.25;;;11.76;100.00
69751;BME280;57335;52.288;6.056;2024-02-15T06:18:21;101432.63;;;11.77;100.00
69751;BME280;57335;52.288;6.056;2024-02-15T06:20:51;101424.94;;;11.76;100.00
69751;BME280;57335;52.288;6.056;2024-02-15T06:23:20;101432.03;;;11.75;100.00
69751;BME280;57335;52.288;6.056;2024-02-15T06:25:46;101430.81;;;11.71;100.00
69751;BME280;57335;52.288;6.056;2024-02-15T06:28:16;101423.91;;;11.70;100.00
69751;BME280;57335;52.288;6.056;2024-02-15T06:31:10;101423.91;;;11.70;100.00
69751;BME280;57335;52.288;6.056;2024-02-15T06:33:57;101424.53;;;11.66;100.00
69751;BME280;57335;52.288;6.056;2024-02-15T06:36:50;101439.91;;;11.69;100.00
69751;BME280;57335;52.288;6.056;2024-02-15T06:39:35;101444.31;;;11.68;100.00
69751;BME280;57335;52.288;6.056;2024-02-15T06:42:18;101444.94;;;11.70;100.00
69751;BME280;57335;52.288;6.056;2024-02-15T06:44:47;101443.94;;;11.71;100.00
69751;BME280;57335;52.288;6.056;2024-02-15T06:47:14;101449.00;;;11.73;100.00
69751;BME280;57335;52.288;6.056;2024-02-15T06:49:45;101455.03;;;11.73;100.00
69751;BME280;57335;52.288;6.056;2024-02-15T06:52:18;101457.66;;;11.73;100.00
69751;BME280;57335;52.288;6.056;2024-02-15T06:54:45;101454.63;;;11.76;100.00
69751;BME280;57335;52.288;6.056;2024-02-15T06:57:12;101459.88;;;11.76;100.00
69751;BME280;57335;52.288;6.056;2024-02-15T06:59:39;101446.75;;;11.76;100.00
69751;BME280;57335;52.288;6.056;2024-02-15T07:02:06;101451.81;;;11.78;100.00
69751;BME280;57335;52.288;6.056;2024-02-15T07:04:34;101442.72;;;11.81;100.00
69751;BME280;57335;52.288;6.056;2024-02-15T07:07:01;101430.63;;;11.80;100.00
69751;BME280;57335;52.288;6.056;2024-02-15T07:09:29;101438.69;;;11.78;100.00
69751;BME280;57335;52.288;6.056;2024-02-15T07:11:56;101442.34;;;11.77;100.00
69751;BME280;57335;52.288;6.056;2024-02-15T07:14:23;101448.38;;;11.77;100.00
69751;BME280;57335;52.288;6.056;2024-02-15T07:16:49;101442.34;;;11.84;100.00
69751;BME280;57335;52.288;6.056;2024-02-15T07:19:17;101432.22;;;11.81;100.00
69751;BME280;57335;52.288;6.056;2024-02-15T07:21:45;101424.97;;;11.83;100.00
69751;BME280;57335;52.288;6.056;2024-02-15T07:24:13;101434.25;;;11.85;100.00
69751;BME280;57335;52.288;6.056;2024-02-15T07:26:40;101429.81;;;11.86;100.00
69751;BME280;57335;52.288;6.056;2024-02-15T07:29:07;101434.72;;;11.89;100.00
69751;BME280;57335;52.288;6.056;2024-02-15T07:31:35;101435.69;;;11.88;100.00
69751;BME280;57335;52.288;6.056;2024-02-15T07:34:02;101447.84;;;11.89;100.00
69751;BME280;57335;52.288;6.056;2024-02-15T07:36:30;101456.13;;;11.92;100.00
69751;BME280;57335;52.288;6.056;2024-02-15T07:38:57;101448.47;;;11.91;100.00
69751;BME280;57335;52.288;6.056;2024-02-15T07:41:29;101465.81;;;11.92;100.00
69751;BME280;57335;52.288;6.056;2024-02-15T07:43:55;101468.44;;;11.92;100.00
69751;BME280;57335;52.288;6.056;2024-02-15T07:46:24;101464.00;;;11.92;100.00
69751;BME280;57335;52.288;6.056;2024-02-15T07:48:51;101467.03;;;11.96;100.00
69751;BME280;57335;52.288;6.056;2024-02-15T07:51:21;101461.78;;;11.96;100.00
69751;BME280;57335;52.288;6.056;2024-02-15T07:53:48;101449.88;;;11.93;100.00
69751;BME280;57335;52.288;6.056;2024-02-15T07:56:16;101456.94;;;11.93;100.00
69751;BME280;57335;52.288;6.056;2024-02-15T07:58:45;101460.38;;;11.93;100.00
69751;BME280;57335;52.288;6.056;2024-02-15T08:01:19;101461.97;;;11.94;100.00
69751;BME280;57335;52.288;6.056;2024-02-15T08:03:51;101475.53;;;11.91;100.00
69751;BME280;57335;52.288;6.056;2024-02-15T08:06:21;101484.38;;;11.90;100.00
69751;BME280;57335;52.288;6.056;2024-02-15T08:08:50;101498.09;;;11.86;100.00
69751;BME280;57335;52.288;6.056;2024-02-15T08:11:18;101498.28;;;11.84;100.00
69751;BME280;57335;52.288;6.056;2024-02-15T08:13:46;101501.94;;;11.83;100.00
69751;BME280;57335;52.288;6.056;2024-02-15T08:16:18;101485.75;;;11.86;100.00
69751;BME280;57335;52.288;6.056;2024-02-15T08:18:45;101476.75;;;11.89;100.00
69751;BME280;57335;52.288;6.056;2024-02-15T08:21:15;101460.97;;;11.89;100.00
69751;BME280;57335;52.288;6.056;2024-02-15T08:23:42;101457.50;;;11.88;100.00
69751;BME280;57335;52.288;6.056;2024-02-15T08:26:09;101462.59;;;11.90;100.00
69751;BME280;57335;52.288;6.056;2024-02-15T08:28:39;101469.47;;;11.91;100.00
69751;BME280;57335;52.288;6.056;2024-02-15T08:31:09;101462.59;;;11.90;100.00
69751;BME280;57335;52.288;6.056;2024-02-15T08:33:37;101465.81;;;11.92;100.00
69751;BME280;57335;52.288;6.056;2024-02-15T08:36:05;101462.59;;;11.90;100.00
69751;BME280;57335;52.288;6.056;2024-02-15T08:38:32;101449.59;;;11.88;100.00
69751;BME280;57335;52.288;6.056;2024-02-15T08:41:00;101435.06;;;11.86;100.00
69751;BME280;57335;52.288;6.056;2024-02-15T08:43:27;101431.84;;;11.84;100.00
69751;BME280;57335;52.288;6.056;2024-02-15T08:45:53;101434.22;;;11.78;100.00
69751;BME280;57335;52.288;6.056;2024-02-15T08:48:20;101422.72;;;11.80;100.00
69751;BME280;57335;52.288;6.056;2024-02-15T08:50:49;101419.50;;;11.77;100.00
69751;BME280;57335;52.288;6.056;2024-02-15T08:53:15;101420.91;;;11.73;100.00
69751;BME280;57335;52.288;6.056;2024-02-15T08:55:45;101428.97;;;11.72;100.00
69751;BME280;57335;52.288;6.056;2024-02-15T08:58:12;101443.50;;;11.74;100.00
69751;BME280;57335;52.288;6.056;2024-02-15T09:00:39;101445.16;;;11.75;100.00
69751;BME280;57335;52.288;6.056;2024-02-15T09:03:11;101448.56;;;11.76;100.00
69751;BME280;57335;52.288;6.056;2024-02-15T09:05:39;101455.25;;;11.78;100.00
69751;BME280;57335;52.288;6.056;2024-02-15T09:08:07;101444.97;;;11.77;100.00
69751;BME280;57335;52.288;6.056;2024-02-15T09:10:34;101437.47;;;11.74;100.00
69751;BME280;57335;52.288;6.056;2024-02-15T09:13:02;101432.22;;;11.74;100.00
69751;BME280;57335;52.288;6.056;2024-02-15T09:15:29;101439.09;;;11.75;100.00
69751;BME280;57335;52.288;6.056;2024-02-15T09:17:57;101436.66;;;11.73;100.00
69751;BME280;57335;52.288;6.056;2024-02-15T09:20:24;101437.47;;;11.74;100.00
69751;BME280;57335;52.288;6.056;2024-02-15T09:22:55;101426.53;;;11.70;100.00
69751;BME280;57335;52.288;6.056;2024-02-15T09:25:23;101427.16;;;11.72;100.00
69751;BME280;57335;52.288;6.056;2024-02-15T09:27:51;101422.72;;;11.73;100.00
69751;BME280;57335;52.288;6.056;2024-02-15T09:30:18;101409.19;;;11.69;100.00
69751;BME280;57335;52.288;6.056;2024-02-15T09:32:45;101413.41;;;11.70;100.00
69751;BME280;57335;52.288;6.056;2024-02-15T09:35:13;101409.59;;;11.73;100.00
69751;BME280;57335;52.288;6.056;2024-02-15T09:37:44;101416.88;;;11.77;100.00
69751;BME280;57335;52.288;6.056;2024-02-15T09:40:12;101410.81;;;11.77;100.00
69751;BME280;57335;52.288;6.056;2024-02-15T09:42:39;101407.78;;;11.80;100.00
69751;BME280;57335;52.288;6.056;2024-02-15T09:45:07;101405.38;;;11.85;100.00
69751;BME280;57335;52.288;6.056;2024-02-15T09:47:38;101415.47;;;11.88;100.00
69751;BME280;57335;52.288;6.056;2024-02-15T09:50:08;101423.00;;;11.91;100.00
69751;BME280;57335;52.288;6.056;2024-02-15T09:52:49;101420.34;;;11.98;100.00
69751;BME280;57335;52.288;6.056;2024-02-15T09:55:16;101424.41;;;12.07;100.00
69751;BME280;57335;52.288;6.056;2024-02-15T09:57:44;101428.06;;;12.13;100.00
69751;BME280;57335;52.288;6.056;2024-02-15T10:00:13;101433.09;;;12.14;100.00
69751;BME280;57335;52.288;6.056;2024-02-15T10:02:41;101437.97;;;12.17;100.00
69751;BME280;57335;52.288;6.056;2024-02-15T10:05:12;101436.94;;;12.18;100.00
69751;BME280;57335;52.288;6.056;2024-02-15T10:07:40;101432.72;;;12.17;100.00
69751;BME280;57335;52.288;6.056;2024-02-15T10:10:20;101432.09;;;12.22;100.00
69751;BME280;57335;52.288;6.056;2024-02-15T10:12:48;101434.72;;;12.22;100.00
69751;BME280;57335;52.288;6.056;2024-02-15T10:15:37;101426.22;;;12.20;100.00
69751;BME280;57335;52.288;6.056;2024-02-15T10:18:06;101424.41;;;12.21;100.00
69751;BME280;57335;52.288;6.056;2024-02-15T10:20:36;101439.78;;;12.24;100.00
69751;BME280;57335;52.288;6.056;2024-02-15T10:25:36;101437.56;;;12.27;100.00
69751;BME280;57335;52.288;6.056;2024-02-15T10:28:07;101433.50;;;12.25;100.00
69751;BME280;57335;52.288;6.056;2024-02-15T10:30:41;101438.38;;;12.28;100.00
69751;BME280;57335;52.288;6.056;2024-02-15T10:33:26;101446.25;;;12.28;100.00
69751;BME280;57335;52.288;6.056;2024-02-15T10:36:06;101448.25;;;12.32;100.00
69751;BME280;57335;52.288;6.056;2024-02-15T10:38:34;101447.66;;;12.30;100.00
69751;BME280;57335;52.288;6.056;2024-02-15T10:41:03;101449.69;;;12.28;100.00
69751;BME280;57335;52.288;6.056;2024-02-15T10:43:33;101451.31;;;12.36;100.00
69751;BME280;57335;52.288;6.056;2024-02-15T10:46:00;101454.97;;;12.35;100.00
69751;BME280;57335;52.288;6.056;2024-02-15T10:48:27;101447.69;;;12.37;100.00
69751;BME280;57335;52.288;6.056;2024-02-15T10:50:56;101445.22;;;12.42;100.00
69751;BME280;57335;52.288;6.056;2024-02-15T10:53:30;101441.00;;;12.41;100.00
69751;BME280;57335;52.288;6.056;2024-02-15T10:56:15;101436.53;;;12.42;100.00
69751;BME280;57335;52.288;6.056;2024-02-15T10:58:49;101449.50;;;12.43;100.00
69751;BME280;57335;52.288;6.056;2024-02-15T11:01:17;101437.94;;;12.44;100.00
69751;BME280;57335;52.288;6.056;2024-02-15T11:03:51;101434.13;;;12.40;100.00
69751;BME280;57335;52.288;6.056;2024-02-15T11:06:20;101425.44;;;12.40;100.00
69751;BME280;57335;52.288;6.056;2024-02-15T11:08:48;101431.47;;;12.40;100.00
69751;BME280;57335;52.288;6.056;2024-02-15T11:11:15;101424.63;;;12.39;100.00
69751;BME280;57335;52.288;6.056;2024-02-15T11:13:42;101414.09;;;12.39;100.00
69751;BME280;57335;52.288;6.056;2024-02-15T11:16:43;101412.91;;;12.35;100.00
69751;BME280;57335;52.288;6.056;2024-02-15T11:19:10;101426.03;;;12.35;100.00
69751;BME280;57335;52.288;6.056;2024-02-15T11:21:53;101423.22;;;12.43;100.00
69751;BME280;57335;52.288;6.056;2024-02-15T11:24:31;101431.47;;;12.40;100.00
69751;BME280;57335;52.288;6.056;2024-02-15T11:27:04;101418.75;;;12.37;100.00
69751;BME280;57335;52.288;6.056;2024-02-15T11:29:51;101429.47;;;12.42;100.00
69751;BME280;57335;52.288;6.056;2024-02-15T11:35:08;101428.66;;;12.42;100.00
69751;BME280;57335;52.288;6.056;2024-02-15T11:40:27;101422.59;;;12.48;100.00
69751;BME280;57335;52.288;6.056;2024-02-15T11:42:59;101421.78;;;12.41;100.00
69751;BME280;57335;52.288;6.056;2024-02-15T11:45:28;101407.00;;;12.46;100.00
69751;BME280;57335;52.288;6.056;2024-02-15T11:48:00;101406.41;;;12.44;100.00
69751;BME280;57335;52.288;6.056;2024-02-15T11:50:34;101398.94;;;12.41;100.00
69751;BME280;57335;52.288;6.056;2024-02-15T11:53:03;101404.38;;;12.46;100.00
69751;BME280;57335;52.288;6.056;2024-02-15T11:55:39;101388.59;;;12.46;100.00
69751;BME280;57335;52.288;6.056;2024-02-15T11:58:07;101393.66;;;12.48;100.00
69751;BME280;57335;52.288;6.056;2024-02-15T12:00:35;101387.19;;;12.50;100.00
69751;BME280;57335;52.288;6.056;2024-02-15T12:03:21;101385.16;;;12.52;100.00
69751;BME280;57335;52.288;6.056;2024-02-15T12:06:21;101380.31;;;12.56;100.00
69751;BME280;57335;52.288;6.056;2024-02-15T12:09:09;101378.28;;;12.58;100.00
69751;BME280;57335;52.288;6.056;2024-02-15T12:11:58;101378.06;;;12.60;100.00
69751;BME280;57335;52.288;6.056;2024-02-15T12:14:43;101391.00;;;12.68;100.00
69751;BME280;57335;52.288;6.056;2024-02-15T12:17:29;101383.31;;;12.73;100.00
69751;BME280;57335;52.288;6.056;2024-02-15T12:20:14;101381.88;;;12.77;100.00
69751;BME280;57335;52.288;6.056;2024-02-15T12:22:44;101374.41;;;12.74;100.00
69751;BME280;57335;52.288;6.056;2024-02-15T12:25:15;101370.34;;;12.78;100.00
69751;BME280;57335;52.288;6.056;2024-02-15T12:27:44;101375.19;;;12.81;100.00
69751;BME280;57335;52.288;6.056;2024-02-15T12:30:15;101370.72;;;12.82;100.00
69751;BME280;57335;52.288;6.056;2024-02-15T12:32:43;101359.19;;;12.83;100.00
69751;BME280;57335;52.288;6.056;2024-02-15T12:35:14;101361.22;;;12.87;100.00
69751;BME280;57335;52.288;6.056;2024-02-15T12:37:47;101351.88;;;12.91;100.00
69751;BME280;57335;52.288;6.056;2024-02-15T12:40:17;101363.00;;;12.93;100.00
69751;BME280;57335;52.288;6.056;2024-02-15T12:42:45;101353.88;;;12.96;100.00
69751;BME280;57335;52.288;6.056;2024-02-15T12:45:20;101357.53;;;12.95;100.00
69751;BME280;57335;52.288;6.056;2024-02-15T12:47:52;101359.13;;;12.96;100.00
69751;BME280;57335;52.288;6.056;2024-02-15T12:50:20;101352.66;;;12.98;100.00
69751;BME280;57335;52.288;6.056;2024-02-15T12:52:51;101344.34;;;13.02;100.00
69751;BME280;57335;52.288;6.056;2024-02-15T12:55:21;101347.13;;;13.07;100.00
69751;BME280;57335;52.288;6.056;2024-02-15T12:57:53;101342.28;;;13.10;100.00
69751;BME280;57335;52.288;6.056;2024-02-15T13:00:26;101350.75;;;13.12;100.00
69751;BME280;57335;52.288;6.056;2024-02-15T13:02:59;101349.56;;;13.15;100.00